createdAt,value
2016-05-12T00:00:01.195Z,999.33
2016-05-12T00:00:11.195Z,999.33
2016-05-12T00:00:21.195Z,999.35
2016-05-12T00:00:31.180Z,999.36
2016-05-12T00:00:41.198Z,999.35
2016-05-12T00:00:51.729Z,999.35
2016-05-12T00:01:01.542Z,999.35
2016-05-12T00:01:11.620Z,999.34
2016-05-12T00:01:21.308Z,999.36
2016-05-12T00:01:31.558Z,999.35
2016-05-12T00:01:41.153Z,999.34
2016-05-12T00:01:51.153Z,999.38
2016-05-12T00:02:00.997Z,999.35
2016-05-12T00:02:11.138Z,999.33
2016-05-12T00:02:21.138Z,999.39
2016-05-12T00:02:31.153Z,999.32
2016-05-12T00:02:41.141Z,999.31
2016-05-12T00:02:51.141Z,999.36
2016-05-12T00:03:01.125Z,999.35
2016-05-12T00:03:11.109Z,999.34
2016-05-12T00:03:20.953Z,999.36
2016-05-12T00:03:31.109Z,999.38
2016-05-12T00:03:41.112Z,999.35
2016-05-12T00:03:51.097Z,999.31
2016-05-12T00:04:01.097Z,999.34
2016-05-12T00:04:10.941Z,999.32
2016-05-12T00:04:21.097Z,999.32
2016-05-12T00:04:31.097Z,999.34
2016-05-12T00:04:40.927Z,999.34
2016-05-12T00:04:51.068Z,999.31
2016-05-12T00:05:01.068Z,999.34
2016-05-12T00:05:11.068Z,999.35
2016-05-12T00:05:21.068Z,999.29
2016-05-12T00:05:31.052Z,999.31
2016-05-12T00:05:41.055Z,999.32
2016-05-12T00:05:51.055Z,999.31
2016-05-12T00:06:01.039Z,999.29
2016-05-12T00:06:11.039Z,999.25
2016-05-12T00:06:21.039Z,999.29
2016-05-12T00:06:31.024Z,999.34
2016-05-12T00:06:41.026Z,999.32
2016-05-12T00:06:51.026Z,999.31
2016-05-12T00:07:01.026Z,999.31
2016-05-12T00:07:11.010Z,999.34
2016-05-12T00:07:20.994Z,999.29
2016-05-12T00:07:31.010Z,999.29
2016-05-12T00:07:40.997Z,999.3
2016-05-12T00:07:51.013Z,999.31
2016-05-12T00:08:00.997Z,999.31
2016-05-12T00:08:10.997Z,999.31
2016-05-12T00:08:20.997Z,999.3
2016-05-12T00:08:30.982Z,999.33
2016-05-12T00:08:40.969Z,999.32
2016-05-12T00:08:50.985Z,999.31
2016-05-12T00:09:00.813Z,999.32
2016-05-12T00:09:10.954Z,999.34
2016-05-12T00:09:20.954Z,999.33
2016-05-12T00:09:30.954Z,999.32
2016-05-12T00:09:40.956Z,999.28
2016-05-12T00:09:50.940Z,999.32
2016-05-12T00:10:00.940Z,999.3
2016-05-12T00:10:10.940Z,999.3
2016-05-12T00:10:20.940Z,999.27
2016-05-12T00:10:30.940Z,999.32
2016-05-12T00:10:40.772Z,999.29
2016-05-12T00:10:50.928Z,999.33
2016-05-12T00:11:00.928Z,999.28
2016-05-12T00:11:10.928Z,999.28
2016-05-12T00:11:20.913Z,999.28
2016-05-12T00:11:30.913Z,999.32
2016-05-12T00:11:40.915Z,999.33
2016-05-12T00:11:50.899Z,999.31
2016-05-12T00:12:00.883Z,999.29
2016-05-12T00:12:10.883Z,999.32
2016-05-12T00:12:20.883Z,999.32
2016-05-12T00:12:30.727Z,999.34
2016-05-12T00:12:40.886Z,999.37
2016-05-12T00:12:50.871Z,999.3
2016-05-12T00:13:00.871Z,999.31
2016-05-12T00:13:10.855Z,999.31
2016-05-12T00:13:20.886Z,999.31
2016-05-12T00:13:30.840Z,999.33
2016-05-12T00:13:40.702Z,999.29
2016-05-12T00:13:50.843Z,999.32
2016-05-12T00:14:00.686Z,999.31
2016-05-12T00:14:10.843Z,999.3
2016-05-12T00:14:20.827Z,999.28
2016-05-12T00:14:30.827Z,999.3
2016-05-12T00:14:40.829Z,999.28
2016-05-12T00:14:50.813Z,999.26
2016-05-12T00:15:00.813Z,999.28
2016-05-12T00:15:10.829Z,999.3
2016-05-12T00:15:20.798Z,999.35
2016-05-12T00:15:30.688Z,999.29
2016-05-12T00:15:40.801Z,999.3
2016-05-12T00:15:50.644Z,999.28
2016-05-12T00:16:00.816Z,999.28
2016-05-12T00:16:10.738Z,999.3
2016-05-12T00:16:20.801Z,999.29
2016-05-12T00:16:30.769Z,999.3
2016-05-12T00:16:40.771Z,999.34
2016-05-12T00:16:50.771Z,999.26
2016-05-12T00:17:00.615Z,999.28
2016-05-12T00:17:10.600Z,999.31
2016-05-12T00:17:20.740Z,999.29
2016-05-12T00:17:30.584Z,999.29
2016-05-12T00:17:40.743Z,999.31
2016-05-12T00:17:50.587Z,999.29
2016-05-12T00:18:00.587Z,999.28
2016-05-12T00:18:10.728Z,999.29
2016-05-12T00:18:20.728Z,999.33
2016-05-12T00:18:30.728Z,999.33
2016-05-12T00:18:40.731Z,999.29
2016-05-12T00:18:50.559Z,999.3
2016-05-12T00:19:00.543Z,999.28
2016-05-12T00:19:10.559Z,999.3
2016-05-12T00:19:20.715Z,999.26
2016-05-12T00:19:30.699Z,999.29
2016-05-12T00:19:40.687Z,999.23
2016-05-12T00:19:50.687Z,999.28
2016-05-12T00:20:00.702Z,999.32
2016-05-12T00:20:10.687Z,999.28
2016-05-12T00:20:20.671Z,999.29
2016-05-12T00:20:30.671Z,999.31
2016-05-12T00:20:40.501Z,999.3
2016-05-12T00:20:50.673Z,999.31
2016-05-12T00:21:00.657Z,999.3
2016-05-12T00:21:10.673Z,999.31
2016-05-12T00:21:20.657Z,999.26
2016-05-12T00:21:30.642Z,999.23
2016-05-12T00:21:40.489Z,999.3
2016-05-12T00:21:50.645Z,999.27
2016-05-12T00:22:00.629Z,999.29
2016-05-12T00:22:10.629Z,999.3
2016-05-12T00:22:20.614Z,999.23
2016-05-12T00:22:30.614Z,999.28
2016-05-12T00:22:40.616Z,999.3
2016-05-12T00:22:50.616Z,999.24
2016-05-12T00:23:00.616Z,999.24
2016-05-12T00:23:10.600Z,999.29
2016-05-12T00:23:20.444Z,999.27
2016-05-12T00:23:30.584Z,999.27
2016-05-12T00:23:40.588Z,999.3
2016-05-12T00:23:50.588Z,999.3
2016-05-12T00:24:00.416Z,999.27
2016-05-12T00:24:10.588Z,999.27
2016-05-12T00:24:20.416Z,999.26
2016-05-12T00:24:30.573Z,999.23
2016-05-12T00:24:40.576Z,999.27
2016-05-12T00:24:50.560Z,999.27
2016-05-12T00:25:00.544Z,999.24
2016-05-12T00:25:10.404Z,999.27
2016-05-12T00:25:20.544Z,999.31
2016-05-12T00:25:30.560Z,999.23
2016-05-12T00:25:40.562Z,999.27
2016-05-12T00:25:50.531Z,999.26
2016-05-12T00:26:00.390Z,999.26
2016-05-12T00:26:10.531Z,999.29
2016-05-12T00:26:20.375Z,999.28
2016-05-12T00:26:30.515Z,999.28
2016-05-12T00:26:40.502Z,999.27
2016-05-12T00:26:50.502Z,999.24
2016-05-12T00:27:00.345Z,999.27
2016-05-12T00:27:10.502Z,999.27
2016-05-12T00:27:20.486Z,999.27
2016-05-12T00:27:30.486Z,999.28
2016-05-12T00:27:40.348Z,999.27
2016-05-12T00:27:50.317Z,999.27
2016-05-12T00:28:00.489Z,999.25
2016-05-12T00:28:10.333Z,999.24
2016-05-12T00:28:20.473Z,999.27
2016-05-12T00:28:30.473Z,999.28
2016-05-12T00:28:40.460Z,999.23
2016-05-12T00:28:50.460Z,999.27
2016-05-12T00:29:00.444Z,999.26
2016-05-12T00:29:10.444Z,999.26
2016-05-12T00:29:20.444Z,999.23
2016-05-12T00:29:30.303Z,999.21
2016-05-12T00:29:40.431Z,999.25
2016-05-12T00:29:50.431Z,999.26
2016-05-12T00:30:00.416Z,999.26
2016-05-12T00:30:10.431Z,999.22
2016-05-12T00:30:20.416Z,999.23
2016-05-12T00:30:30.416Z,999.25
2016-05-12T00:30:40.247Z,999.24
2016-05-12T00:30:50.325Z,999.24
2016-05-12T00:31:00.247Z,999.25
2016-05-12T00:31:10.497Z,999.22
2016-05-12T00:31:20.575Z,999.25
2016-05-12T00:31:30.356Z,999.24
2016-05-12T00:31:40.391Z,999.23
2016-05-12T00:31:50.219Z,999.25
2016-05-12T00:32:00.359Z,999.24
2016-05-12T00:32:10.375Z,999.23
2016-05-12T00:32:20.359Z,999.23
2016-05-12T00:32:30.359Z,999.19
2016-05-12T00:32:40.362Z,999.23
2016-05-12T00:32:50.347Z,999.22
2016-05-12T00:33:00.206Z,999.25
2016-05-12T00:33:10.347Z,999.25
2016-05-12T00:33:20.331Z,999.22
2016-05-12T00:33:30.331Z,999.2
2016-05-12T00:33:40.333Z,999.21
2016-05-12T00:33:50.333Z,999.22
2016-05-12T00:34:00.317Z,999.22
2016-05-12T00:34:10.317Z,999.22
2016-05-12T00:34:20.317Z,999.24
2016-05-12T00:34:30.317Z,999.2
2016-05-12T00:34:40.305Z,999.2
2016-05-12T00:34:50.289Z,999.24
2016-05-12T00:35:00.289Z,999.23
2016-05-12T00:35:10.289Z,999.24
2016-05-12T00:35:20.289Z,999.2
2016-05-12T00:35:30.274Z,999.25
2016-05-12T00:35:40.277Z,999.26
2016-05-12T00:35:50.277Z,999.2
2016-05-12T00:36:00.105Z,999.24
2016-05-12T00:36:09.948Z,999.23
2016-05-12T00:36:20.261Z,999.2
2016-05-12T00:36:30.245Z,999.2
2016-05-12T00:36:40.263Z,999.25
2016-05-12T00:36:50.263Z,999.17
2016-05-12T00:37:00.263Z,999.2
2016-05-12T00:37:10.263Z,999.2
2016-05-12T00:37:20.232Z,999.23
2016-05-12T00:37:30.232Z,999.2
2016-05-12T00:37:40.219Z,999.19
2016-05-12T00:37:50.219Z,999.21
2016-05-12T00:38:00.203Z,999.2
2016-05-12T00:38:10.219Z,999.16
2016-05-12T00:38:20.203Z,999.23
2016-05-12T00:38:30.203Z,999.19
2016-05-12T00:38:40.206Z,999.18
2016-05-12T00:38:50.206Z,999.23
2016-05-12T00:39:00.035Z,999.24
2016-05-12T00:39:10.175Z,999.21
2016-05-12T00:39:20.175Z,999.21
2016-05-12T00:39:30.175Z,999.18
2016-05-12T00:39:40.163Z,999.19
2016-05-12T00:39:50.178Z,999.24
2016-05-12T00:40:00.163Z,999.21
2016-05-12T00:40:10.163Z,999.23
2016-05-12T00:40:20.163Z,999.21
2016-05-12T00:40:29.991Z,999.18
2016-05-12T00:40:40.133Z,999.18
2016-05-12T00:40:50.133Z,999.16
2016-05-12T00:40:59.977Z,999.22
2016-05-12T00:41:10.133Z,999.17
2016-05-12T00:41:20.133Z,999.19
2016-05-12T00:41:30.118Z,999.17
2016-05-12T00:41:40.121Z,999.15
2016-05-12T00:41:50.105Z,999.21
2016-05-12T00:42:00.121Z,999.18
2016-05-12T00:42:10.105Z,999.19
2016-05-12T00:42:20.105Z,999.17
2016-05-12T00:42:30.105Z,999.16
2016-05-12T00:42:40.091Z,999.12
2016-05-12T00:42:50.091Z,999.15
2016-05-12T00:43:00.107Z,999.19
2016-05-12T00:43:10.076Z,999.14
2016-05-12T00:43:20.091Z,999.12
2016-05-12T00:43:30.091Z,999.14
2016-05-12T00:43:39.938Z,999.12
2016-05-12T00:43:50.063Z,999.12
2016-05-12T00:44:00.048Z,999.12
2016-05-12T00:44:10.063Z,999.1
2016-05-12T00:44:20.048Z,999.14
2016-05-12T00:44:29.891Z,999.13
2016-05-12T00:44:39.893Z,999.1
2016-05-12T00:44:50.065Z,999.12
2016-05-12T00:45:00.034Z,999.13
2016-05-12T00:45:10.034Z,999.1
2016-05-12T00:45:19.878Z,999.09
2016-05-12T00:45:30.018Z,999.17
2016-05-12T00:45:39.865Z,999.1
2016-05-12T00:45:50.178Z,999.12
2016-05-12T00:46:00.131Z,999.12
2016-05-12T00:46:10.178Z,999.12
2016-05-12T00:46:19.693Z,999.08
2016-05-12T00:46:30.021Z,999.1
2016-05-12T00:46:40.010Z,999.11
2016-05-12T00:46:49.978Z,999.12
2016-05-12T00:46:59.978Z,999.1
2016-05-12T00:47:09.978Z,999.11
2016-05-12T00:47:19.963Z,999.09
2016-05-12T00:47:29.963Z,999.1
2016-05-12T00:47:39.965Z,999.12
2016-05-12T00:47:49.965Z,999.11
2016-05-12T00:47:59.965Z,999.14
2016-05-12T00:48:09.949Z,999.14
2016-05-12T00:48:19.949Z,999.1
2016-05-12T00:48:29.934Z,999.07
2016-05-12T00:48:39.952Z,999.06
2016-05-12T00:48:49.937Z,999.11
2016-05-12T00:48:59.937Z,999.07
2016-05-12T00:49:09.624Z,999.12
2016-05-12T00:49:19.921Z,999.12
2016-05-12T00:49:29.905Z,999.13
2016-05-12T00:49:39.907Z,999.14
2016-05-12T00:49:49.907Z,999.14
2016-05-12T00:49:59.907Z,999.09
2016-05-12T00:50:09.892Z,999.06
2016-05-12T00:50:19.923Z,999.09
2016-05-12T00:50:29.735Z,999.1
2016-05-12T00:50:39.879Z,999.1
2016-05-12T00:50:49.879Z,999.11
2016-05-12T00:50:59.863Z,999.09
2016-05-12T00:51:09.863Z,999.09
2016-05-12T00:51:19.879Z,999.05
2016-05-12T00:51:29.879Z,999.04
2016-05-12T00:51:39.865Z,999.08
2016-05-12T00:51:49.850Z,999.08
2016-05-12T00:51:59.865Z,999.07
2016-05-12T00:52:09.865Z,999.13
2016-05-12T00:52:19.850Z,999.08
2016-05-12T00:52:29.834Z,999.06
2016-05-12T00:52:39.822Z,999.06
2016-05-12T00:52:49.822Z,999.07
2016-05-12T00:52:59.665Z,999.09
2016-05-12T00:53:09.822Z,999.1
2016-05-12T00:53:19.822Z,999.11
2016-05-12T00:53:29.822Z,999.09
2016-05-12T00:53:39.809Z,999.12
2016-05-12T00:53:49.809Z,999.1
2016-05-12T00:53:59.809Z,999.11
2016-05-12T00:54:09.793Z,999.13
2016-05-12T00:54:19.793Z,999.1
2016-05-12T00:54:29.793Z,999.09
2016-05-12T00:54:39.796Z,999.08
2016-05-12T00:54:49.781Z,999.08
2016-05-12T00:54:59.624Z,999.1
2016-05-12T00:55:09.765Z,999.08
2016-05-12T00:55:19.781Z,999.11
2016-05-12T00:55:29.749Z,999.09
2016-05-12T00:55:39.767Z,999.09
2016-05-12T00:55:49.751Z,999.11
2016-05-12T00:55:59.736Z,999.08
2016-05-12T00:56:09.736Z,999.11
2016-05-12T00:56:19.767Z,999.13
2016-05-12T00:56:29.736Z,999.11
2016-05-12T00:56:39.583Z,999.1
2016-05-12T00:56:49.723Z,999.11
2016-05-12T00:56:59.723Z,999.09
2016-05-12T00:57:09.567Z,999.11
2016-05-12T00:57:19.551Z,999.11
2016-05-12T00:57:29.708Z,999.15
2016-05-12T00:57:39.695Z,999.1
2016-05-12T00:57:49.695Z,999.1
2016-05-12T00:57:59.711Z,999.08
2016-05-12T00:58:09.695Z,999.09
2016-05-12T00:58:19.711Z,999.09
2016-05-12T00:58:29.695Z,999.1
2016-05-12T00:58:39.682Z,999.15
2016-05-12T00:58:49.510Z,999.11
2016-05-12T00:58:59.651Z,999.15
2016-05-12T00:59:09.667Z,999.09
2016-05-12T00:59:19.495Z,999.1
2016-05-12T00:59:29.651Z,999.15
2016-05-12T00:59:39.497Z,999.15
2016-05-12T00:59:49.653Z,999.11
2016-05-12T00:59:59.497Z,999.15
2016-05-12T01:00:09.637Z,999.14
2016-05-12T01:00:19.637Z,999.1
2016-05-12T01:00:29.622Z,999.13
2016-05-12T01:00:39.624Z,999.11
2016-05-12T01:00:49.624Z,999.11
2016-05-12T01:00:59.796Z,999.08
2016-05-12T01:01:09.624Z,999.1
2016-05-12T01:01:19.936Z,999.09
2016-05-12T01:01:29.452Z,999.12
2016-05-12T01:01:39.456Z,999.11
2016-05-12T01:01:49.440Z,999.1
2016-05-12T01:01:59.581Z,999.1
2016-05-12T01:02:09.581Z,999.13
2016-05-12T01:02:19.597Z,999.1
2016-05-12T01:02:29.581Z,999.09
2016-05-12T01:02:39.600Z,999.11
2016-05-12T01:02:49.568Z,999.09
2016-05-12T01:02:59.584Z,999.1
2016-05-12T01:03:09.568Z,999.09
2016-05-12T01:03:19.568Z,999.03
2016-05-12T01:03:29.553Z,999.07
2016-05-12T01:03:39.555Z,999.05
2016-05-12T01:03:49.539Z,999.05
2016-05-12T01:03:59.539Z,999.11
2016-05-12T01:04:09.539Z,999.09
2016-05-12T01:04:19.383Z,999.05
2016-05-12T01:04:29.523Z,999.04
2016-05-12T01:04:39.369Z,999.08
2016-05-12T01:04:49.510Z,999.07
2016-05-12T01:04:59.510Z,999.08
2016-05-12T01:05:09.510Z,999.06
2016-05-12T01:05:19.510Z,999.06
2016-05-12T01:05:29.494Z,999.07
2016-05-12T01:05:39.497Z,999.07
2016-05-12T01:05:49.341Z,999.04
2016-05-12T01:05:59.482Z,999.09
2016-05-12T01:06:09.325Z,999.03
2016-05-12T01:06:19.482Z,999.09
2016-05-12T01:06:29.466Z,999.09
2016-05-12T01:06:39.453Z,999.03
2016-05-12T01:06:49.469Z,999.05
2016-05-12T01:06:59.469Z,999.06
2016-05-12T01:07:09.469Z,999.08
2016-05-12T01:07:19.297Z,999.07
2016-05-12T01:07:29.453Z,999.04
2016-05-12T01:07:39.441Z,999.02
2016-05-12T01:07:49.441Z,999.07
2016-05-12T01:07:59.425Z,999.08
2016-05-12T01:08:09.425Z,999.1
2016-05-12T01:08:19.425Z,999.1
2016-05-12T01:08:29.409Z,999.07
2016-05-12T01:08:39.428Z,999.05
2016-05-12T01:08:49.428Z,999.08
2016-05-12T01:08:59.412Z,999.02
2016-05-12T01:09:09.412Z,999.06
2016-05-12T01:09:19.397Z,999.07
2016-05-12T01:09:29.381Z,999.09
2016-05-12T01:09:39.383Z,999.02
2016-05-12T01:09:49.399Z,999.09
2016-05-12T01:09:59.368Z,999.06
2016-05-12T01:10:09.211Z,999.02
2016-05-12T01:10:19.211Z,999.02
2016-05-12T01:10:29.368Z,999.04
2016-05-12T01:10:39.371Z,999.08
2016-05-12T01:10:49.371Z,999.03
2016-05-12T01:10:59.355Z,999.02
2016-05-12T01:11:09.355Z,999.03
2016-05-12T01:11:19.339Z,999.03
2016-05-12T01:11:29.183Z,999.01
2016-05-12T01:11:39.341Z,999.06
2016-05-12T01:11:49.326Z,999.02
2016-05-12T01:11:59.326Z,999.03
2016-05-12T01:12:09.341Z,999.06
2016-05-12T01:12:19.326Z,999.02
2016-05-12T01:12:29.154Z,999.05
2016-05-12T01:12:39.157Z,999.05
2016-05-12T01:12:49.157Z,999.05
2016-05-12T01:12:59.297Z,999.02
2016-05-12T01:13:09.329Z,999.02
2016-05-12T01:13:19.297Z,999.04
2016-05-12T01:13:29.282Z,999.01
2016-05-12T01:13:39.285Z,999.04
2016-05-12T01:13:49.285Z,999.03
2016-05-12T01:13:59.285Z,999.01
2016-05-12T01:14:09.269Z,999.03
2016-05-12T01:14:19.269Z,999.02
2016-05-12T01:14:29.269Z,999.02
2016-05-12T01:14:39.257Z,999.01
2016-05-12T01:14:49.257Z,999
2016-05-12T01:14:59.241Z,999.04
2016-05-12T01:15:09.241Z,999.01
2016-05-12T01:15:19.257Z,998.98
2016-05-12T01:15:29.241Z,999.02
2016-05-12T01:15:38.931Z,999.05
2016-05-12T01:15:49.072Z,999.02
2016-05-12T01:15:59.213Z,999.04
2016-05-12T01:16:09.228Z,999
2016-05-12T01:16:19.072Z,998.99
2016-05-12T01:16:29.072Z,999.01
2016-05-12T01:16:39.762Z,999
2016-05-12T01:16:49.090Z,999.03
2016-05-12T01:16:59.043Z,998.96
2016-05-12T01:17:09.183Z,998.96
2016-05-12T01:17:19.043Z,999
2016-05-12T01:17:29.043Z,998.99
2016-05-12T01:17:39.045Z,998.98
2016-05-12T01:17:49.185Z,999.04
2016-05-12T01:17:59.170Z,998.99
2016-05-12T01:18:09.154Z,999
2016-05-12T01:18:19.154Z,998.96
2016-05-12T01:18:29.154Z,998.99
2016-05-12T01:18:39.188Z,998.98
2016-05-12T01:18:49.157Z,998.95
2016-05-12T01:18:59.142Z,998.96
2016-05-12T01:19:08.938Z,998.94
2016-05-12T01:19:19.126Z,998.95
2016-05-12T01:19:29.126Z,998.95
2016-05-12T01:19:38.973Z,998.93
2016-05-12T01:19:49.113Z,998.96
2016-05-12T01:19:59.145Z,998.98
2016-05-12T01:20:09.113Z,998.95
2016-05-12T01:20:18.957Z,998.96
2016-05-12T01:20:29.113Z,999
2016-05-12T01:20:39.115Z,998.96
2016-05-12T01:20:49.100Z,998.99
2016-05-12T01:20:58.943Z,999
2016-05-12T01:21:09.100Z,998.97
2016-05-12T01:21:19.084Z,998.95
2016-05-12T01:21:29.068Z,998.96
2016-05-12T01:21:39.072Z,998.96
2016-05-12T01:21:49.072Z,998.99
2016-05-12T01:21:58.916Z,998.95
2016-05-12T01:22:08.916Z,998.98
2016-05-12T01:22:19.072Z,998.98
2016-05-12T01:22:29.057Z,998.98
2016-05-12T01:22:39.043Z,998.94
2016-05-12T01:22:49.043Z,998.98
2016-05-12T01:22:59.043Z,998.97
2016-05-12T01:23:09.043Z,998.99
2016-05-12T01:23:18.887Z,998.95
2016-05-12T01:23:29.028Z,998.94
2016-05-12T01:23:39.031Z,998.96
2016-05-12T01:23:49.015Z,998.96
2016-05-12T01:23:58.859Z,998.96
2016-05-12T01:24:09.015Z,998.96
2016-05-12T01:24:19.015Z,998.98
2016-05-12T01:24:29.015Z,998.94
2016-05-12T01:24:38.846Z,998.94
2016-05-12T01:24:48.987Z,998.97
2016-05-12T01:24:58.987Z,998.95
2016-05-12T01:25:09.002Z,998.95
2016-05-12T01:25:18.987Z,998.94
2016-05-12T01:25:28.987Z,998.92
2016-05-12T01:25:38.973Z,998.93
2016-05-12T01:25:48.817Z,998.93
2016-05-12T01:25:58.957Z,998.9
2016-05-12T01:26:08.957Z,998.92
2016-05-12T01:26:18.942Z,998.93
2016-05-12T01:26:28.942Z,998.93
2016-05-12T01:26:38.992Z,998.91
2016-05-12T01:26:48.960Z,998.89
2016-05-12T01:26:58.789Z,998.87
2016-05-12T01:27:08.960Z,998.89
2016-05-12T01:27:18.914Z,998.89
2016-05-12T01:27:28.929Z,998.88
2016-05-12T01:27:38.962Z,998.89
2016-05-12T01:27:48.931Z,998.89
2016-05-12T01:27:58.916Z,998.84
2016-05-12T01:28:08.900Z,998.88
2016-05-12T01:28:18.916Z,998.88
2016-05-12T01:28:28.900Z,998.88
2016-05-12T01:28:38.903Z,998.88
2016-05-12T01:28:48.887Z,998.87
2016-05-12T01:28:58.887Z,998.9
2016-05-12T01:29:08.887Z,998.89
2016-05-12T01:29:18.872Z,998.89
2016-05-12T01:29:28.872Z,998.88
2016-05-12T01:29:38.875Z,998.89
2016-05-12T01:29:48.859Z,998.86
2016-05-12T01:29:58.859Z,998.88
2016-05-12T01:30:08.859Z,998.83
2016-05-12T01:30:18.859Z,998.87
2016-05-12T01:30:28.859Z,998.87
2016-05-12T01:30:38.831Z,998.88
2016-05-12T01:30:48.831Z,998.84
2016-05-12T01:30:58.831Z,998.89
2016-05-12T01:31:08.971Z,998.83
2016-05-12T01:31:18.846Z,998.84
2016-05-12T01:31:28.721Z,998.85
2016-05-12T01:31:38.520Z,998.87
2016-05-12T01:31:48.661Z,998.84
2016-05-12T01:31:58.817Z,998.86
2016-05-12T01:32:08.802Z,998.85
2016-05-12T01:32:18.661Z,998.81
2016-05-12T01:32:28.786Z,998.89
2016-05-12T01:32:38.648Z,998.84
2016-05-12T01:32:48.789Z,998.9
2016-05-12T01:32:58.773Z,998.85
2016-05-12T01:33:08.773Z,998.85
2016-05-12T01:33:18.758Z,998.85
2016-05-12T01:33:28.758Z,998.85
2016-05-12T01:33:38.760Z,998.85
2016-05-12T01:33:48.775Z,998.86
2016-05-12T01:33:58.760Z,998.87
2016-05-12T01:34:08.744Z,998.87
2016-05-12T01:34:18.588Z,998.85
2016-05-12T01:34:28.744Z,998.82
2016-05-12T01:34:38.747Z,998.86
2016-05-12T01:34:48.731Z,998.87
2016-05-12T01:34:58.731Z,998.86
2016-05-12T01:35:08.731Z,998.87
2016-05-12T01:35:18.731Z,998.85
2016-05-12T01:35:28.716Z,998.87
2016-05-12T01:35:38.547Z,998.82
2016-05-12T01:35:48.547Z,998.84
2016-05-12T01:35:58.547Z,998.8
2016-05-12T01:36:08.703Z,998.84
2016-05-12T01:36:18.688Z,998.83
2016-05-12T01:36:28.688Z,998.82
2016-05-12T01:36:38.519Z,998.84
2016-05-12T01:36:48.675Z,998.81
2016-05-12T01:36:58.675Z,998.8
2016-05-12T01:37:08.659Z,998.83
2016-05-12T01:37:18.675Z,998.84
2016-05-12T01:37:28.659Z,998.83
2016-05-12T01:37:38.662Z,998.85
2016-05-12T01:37:48.647Z,998.82
2016-05-12T01:37:58.647Z,998.81
2016-05-12T01:38:08.647Z,998.84
2016-05-12T01:38:18.647Z,998.86
2016-05-12T01:38:28.475Z,998.89
2016-05-12T01:38:38.633Z,998.83
2016-05-12T01:38:48.617Z,998.84
2016-05-12T01:38:58.461Z,998.79
2016-05-12T01:39:08.602Z,998.85
2016-05-12T01:39:18.617Z,998.83
2016-05-12T01:39:28.617Z,998.81
2016-05-12T01:39:38.605Z,998.84
2016-05-12T01:39:48.620Z,998.85
2016-05-12T01:39:58.589Z,998.85
2016-05-12T01:40:08.589Z,998.88
2016-05-12T01:40:18.589Z,998.85
2016-05-12T01:40:28.433Z,998.84
2016-05-12T01:40:38.576Z,998.87
2016-05-12T01:40:48.576Z,998.85
2016-05-12T01:40:58.576Z,998.87
2016-05-12T01:41:08.560Z,998.85
2016-05-12T01:41:18.560Z,998.87
2016-05-12T01:41:28.560Z,998.83
2016-05-12T01:41:38.548Z,998.86
2016-05-12T01:41:48.564Z,998.85
2016-05-12T01:41:58.392Z,998.88
2016-05-12T01:42:08.392Z,998.84
2016-05-12T01:42:18.533Z,998.85
2016-05-12T01:42:28.533Z,998.88
2016-05-12T01:42:38.535Z,998.88
2016-05-12T01:42:48.535Z,998.85
2016-05-12T01:42:58.519Z,998.85
2016-05-12T01:43:08.519Z,998.87
2016-05-12T01:43:18.503Z,998.86
2016-05-12T01:43:28.503Z,998.88
2016-05-12T01:43:38.490Z,998.85
2016-05-12T01:43:48.490Z,998.84
2016-05-12T01:43:58.490Z,998.85
2016-05-12T01:44:08.490Z,998.79
2016-05-12T01:44:18.490Z,998.84
2016-05-12T01:44:28.334Z,998.82
2016-05-12T01:44:38.462Z,998.78
2016-05-12T01:44:48.477Z,998.79
2016-05-12T01:44:58.462Z,998.8
2016-05-12T01:45:08.462Z,998.82
2016-05-12T01:45:18.446Z,998.8
2016-05-12T01:45:28.446Z,998.82
2016-05-12T01:45:38.293Z,998.8
2016-05-12T01:45:48.449Z,998.78
2016-05-12T01:45:58.293Z,998.82
2016-05-12T01:46:08.449Z,998.8
2016-05-12T01:46:18.746Z,998.79
2016-05-12T01:46:28.433Z,998.81
2016-05-12T01:46:38.264Z,998.81
2016-05-12T01:46:48.311Z,998.78
2016-05-12T01:46:58.405Z,998.77
2016-05-12T01:47:08.421Z,998.79
2016-05-12T01:47:18.405Z,998.78
2016-05-12T01:47:28.405Z,998.77
2016-05-12T01:47:38.391Z,998.81
2016-05-12T01:47:48.251Z,998.78
2016-05-12T01:47:58.376Z,998.8
2016-05-12T01:48:08.376Z,998.78
2016-05-12T01:48:18.220Z,998.77
2016-05-12T01:48:28.376Z,998.78
2016-05-12T01:48:38.379Z,998.8
2016-05-12T01:48:48.363Z,998.75
2016-05-12T01:48:58.363Z,998.76
2016-05-12T01:49:08.207Z,998.77
2016-05-12T01:49:18.348Z,998.76
2016-05-12T01:49:28.348Z,998.78
2016-05-12T01:49:38.351Z,998.76
2016-05-12T01:49:48.194Z,998.76
2016-05-12T01:49:58.335Z,998.77
2016-05-12T01:50:08.319Z,998.77
2016-05-12T01:50:18.319Z,998.79
2016-05-12T01:50:28.163Z,998.79
2016-05-12T01:50:38.321Z,998.8
2016-05-12T01:50:48.306Z,998.75
2016-05-12T01:50:58.306Z,998.78
2016-05-12T01:51:08.306Z,998.78
2016-05-12T01:51:18.290Z,998.77
2016-05-12T01:51:28.290Z,998.76
2016-05-12T01:51:38.293Z,998.78
2016-05-12T01:51:48.277Z,998.77
2016-05-12T01:51:58.309Z,998.76
2016-05-12T01:52:08.277Z,998.77
2016-05-12T01:52:18.277Z,998.76
2016-05-12T01:52:28.262Z,998.75
2016-05-12T01:52:38.265Z,998.75
2016-05-12T01:52:48.265Z,998.78
2016-05-12T01:52:58.280Z,998.76
2016-05-12T01:53:08.093Z,998.78
2016-05-12T01:53:18.671Z,998.76
2016-05-12T01:53:28.234Z,998.78
2016-05-12T01:53:38.236Z,998.77
2016-05-12T01:53:48.236Z,998.75
2016-05-12T01:53:58.236Z,998.78
2016-05-12T01:54:08.220Z,998.71
2016-05-12T01:54:18.220Z,998.72
2016-05-12T01:54:28.220Z,998.78
2016-05-12T01:54:38.207Z,998.79
2016-05-12T01:54:48.207Z,998.76
2016-05-12T01:54:58.207Z,998.74
2016-05-12T01:55:08.192Z,998.72
2016-05-12T01:55:18.192Z,998.72
2016-05-12T01:55:28.207Z,998.74
2016-05-12T01:55:38.179Z,998.78
2016-05-12T01:55:48.179Z,998.78
2016-05-12T01:55:58.179Z,998.72
2016-05-12T01:56:08.179Z,998.74
2016-05-12T01:56:18.163Z,998.75
2016-05-12T01:56:28.179Z,998.77
2016-05-12T01:56:37.995Z,998.75
2016-05-12T01:56:48.151Z,998.78
2016-05-12T01:56:58.151Z,998.73
2016-05-12T01:57:08.151Z,998.73
2016-05-12T01:57:18.151Z,998.68
2016-05-12T01:57:28.135Z,998.75
2016-05-12T01:57:38.137Z,998.71
2016-05-12T01:57:47.981Z,998.69
2016-05-12T01:57:58.106Z,998.7
2016-05-12T01:58:08.137Z,998.76
2016-05-12T01:58:18.106Z,998.71
2016-05-12T01:58:28.106Z,998.71
2016-05-12T01:58:38.109Z,998.74
2016-05-12T01:58:48.093Z,998.69
2016-05-12T01:58:58.109Z,998.65
2016-05-12T01:59:08.093Z,998.7
2016-05-12T01:59:18.078Z,998.67
2016-05-12T01:59:28.078Z,998.72
2016-05-12T01:59:38.081Z,998.71
2016-05-12T01:59:47.909Z,998.68
2016-05-12T01:59:58.081Z,998.67
2016-05-12T02:00:07.909Z,998.71
2016-05-12T02:00:18.065Z,998.63
2016-05-12T02:00:28.065Z,998.68
2016-05-12T02:00:38.051Z,998.71
2016-05-12T02:00:48.051Z,998.67
2016-05-12T02:00:58.036Z,998.67
2016-05-12T02:01:08.020Z,998.7
2016-05-12T02:01:17.895Z,998.67
2016-05-12T02:01:27.895Z,998.65
2016-05-12T02:01:38.100Z,998.67
2016-05-12T02:01:48.163Z,998.7
2016-05-12T02:01:57.866Z,998.67
2016-05-12T02:02:08.007Z,998.67
2016-05-12T02:02:18.007Z,998.63
2016-05-12T02:02:28.007Z,998.67
2016-05-12T02:02:38.010Z,998.64
2016-05-12T02:02:48.010Z,998.63
2016-05-12T02:02:57.994Z,998.68
2016-05-12T02:03:07.978Z,998.7
2016-05-12T02:03:17.978Z,998.65
2016-05-12T02:03:27.978Z,998.65
2016-05-12T02:03:37.982Z,998.65
2016-05-12T02:03:47.810Z,998.67
2016-05-12T02:03:57.810Z,998.62
2016-05-12T02:04:07.967Z,998.68
2016-05-12T02:04:17.951Z,998.68
2016-05-12T02:04:27.951Z,998.7
2016-05-12T02:04:37.953Z,998.71
2016-05-12T02:04:47.953Z,998.7
2016-05-12T02:04:57.953Z,998.66
2016-05-12T02:05:07.937Z,998.67